sensor_id;sensor_type;location;lat;lon;timestamp;P1;durP1;ratioP1;P2;durP2;ratioP2
64188;SDS011;50493;50.970;10.082;2023-11-21T00:00:11;7.70;;;4.97;;
64188;SDS011;50493;50.970;10.082;2023-11-21T00:02:38;7.00;;;4.55;;
64188;SDS011;50493;50.970;10.082;2023-11-21T00:05:05;5.88;;;3.30;;
64188;SDS011;50493;50.970;10.082;2023-11-21T00:07:32;4.97;;;2.90;;
64188;SDS011;50493;50.970;10.082;2023-11-21T00:09:58;6.30;;;3.25;;
64188;SDS011;50493;50.970;10.082;2023-11-21T00:12:23;5.90;;;3.15;;
64188;SDS011;50493;50.970;10.082;2023-11-21T00:14:49;6.32;;;3.20;;
64188;SDS011;50493;50.970;10.082;2023-11-21T00:17:16;6.15;;;3.60;;
64188;SDS011;50493;50.970;10.082;2023-11-21T00:19:41;6.35;;;3.10;;
64188;SDS011;50493;50.970;10.082;2023-11-21T00:22:07;4.80;;;2.70;;
64188;SDS011;50493;50.970;10.082;2023-11-21T00:24:34;5.53;;;3.00;;
64188;SDS011;50493;50.970;10.082;2023-11-21T00:26:59;4.40;;;2.83;;
64188;SDS011;50493;50.970;10.082;2023-11-21T00:29:24;5.97;;;3.00;;
64188;SDS011;50493;50.970;10.082;2023-11-21T00:31:50;5.30;;;2.97;;
64188;SDS011;50493;50.970;10.082;2023-11-21T00:34:17;4.32;;;2.80;;
64188;SDS011;50493;50.970;10.082;2023-11-21T00:36:43;5.38;;;2.75;;
64188;SDS011;50493;50.970;10.082;2023-11-21T00:39:08;6.07;;;2.70;;
64188;SDS011;50493;50.970;10.082;2023-11-21T00:41:33;6.63;;;2.95;;
64188;SDS011;50493;50.970;10.082;2023-11-21T00:43:59;5.72;;;2.90;;
64188;SDS011;50493;50.970;10.082;2023-11-21T00:46:25;4.43;;;2.88;;
64188;SDS011;50493;50.970;10.082;2023-11-21T00:48:54;4.63;;;2.50;;
64188;SDS011;50493;50.970;10.082;2023-11-21T00:51:20;6.00;;;3.00;;
64188;SDS011;50493;50.970;10.082;2023-11-21T00:53:46;5.50;;;2.70;;
64188;SDS011;50493;50.970;10.082;2023-11-21T00:56:12;5.82;;;2.65;;
64188;SDS011;50493;50.970;10.082;2023-11-21T00:58:38;6.13;;;3.08;;
64188;SDS011;50493;50.970;10.082;2023-11-21T01:01:03;6.07;;;3.45;;
64188;SDS011;50493;50.970;10.082;2023-11-21T01:03:29;6.03;;;2.90;;
64188;SDS011;50493;50.970;10.082;2023-11-21T01:05:55;4.43;;;2.70;;
64188;SDS011;50493;50.970;10.082;2023-11-21T01:08:22;5.18;;;2.70;;
64188;SDS011;50493;50.970;10.082;2023-11-21T01:10:49;4.93;;;2.55;;
64188;SDS011;50493;50.970;10.082;2023-11-21T01:13:14;4.05;;;2.38;;
64188;SDS011;50493;50.970;10.082;2023-11-21T01:15:40;4.88;;;2.80;;
64188;SDS011;50493;50.970;10.082;2023-11-21T01:18:06;4.43;;;2.65;;
64188;SDS011;50493;50.970;10.082;2023-11-21T01:20:32;4.85;;;2.92;;
64188;SDS011;50493;50.970;10.082;2023-11-21T01:22:57;4.55;;;2.60;;
64188;SDS011;50493;50.970;10.082;2023-11-21T01:25:24;6.10;;;2.97;;
64188;SDS011;50493;50.970;10.082;2023-11-21T01:27:50;4.90;;;2.63;;
64188;SDS011;50493;50.970;10.082;2023-11-21T01:30:15;5.07;;;2.80;;
64188;SDS011;50493;50.970;10.082;2023-11-21T01:32:41;4.97;;;2.88;;
64188;SDS011;50493;50.970;10.082;2023-11-21T01:35:07;5.05;;;2.72;;
64188;SDS011;50493;50.970;10.082;2023-11-21T01:37:34;5.28;;;2.90;;
64188;SDS011;50493;50.970;10.082;2023-11-21T01:40:00;4.90;;;2.60;;
64188;SDS011;50493;50.970;10.082;2023-11-21T01:42:27;5.32;;;2.85;;
64188;SDS011;50493;50.970;10.082;2023-11-21T01:44:54;3.97;;;2.42;;
64188;SDS011;50493;50.970;10.082;2023-11-21T01:47:19;5.05;;;2.80;;
64188;SDS011;50493;50.970;10.082;2023-11-21T01:49:46;4.38;;;2.53;;
64188;SDS011;50493;50.970;10.082;2023-11-21T01:52:11;4.55;;;2.72;;
64188;SDS011;50493;50.970;10.082;2023-11-21T01:54:37;4.47;;;2.63;;
64188;SDS011;50493;50.970;10.082;2023-11-21T01:57:03;4.10;;;2.58;;
64188;SDS011;50493;50.970;10.082;2023-11-21T01:59:33;5.03;;;2.92;;
64188;SDS011;50493;50.970;10.082;2023-11-21T02:02:01;7.22;;;2.90;;
64188;SDS011;50493;50.970;10.082;2023-11-21T02:04:27;4.93;;;2.70;;
64188;SDS011;50493;50.970;10.082;2023-11-21T02:06:53;4.85;;;2.78;;
64188;SDS011;50493;50.970;10.082;2023-11-21T02:09:23;4.72;;;2.75;;
64188;SDS011;50493;50.970;10.082;2023-11-21T02:11:50;4.50;;;2.60;;
64188;SDS011;50493;50.970;10.082;2023-11-21T02:14:16;4.82;;;2.63;;
64188;SDS011;50493;50.970;10.082;2023-11-21T02:16:46;5.10;;;2.90;;
64188;SDS011;50493;50.970;10.082;2023-11-21T02:19:14;4.78;;;2.90;;
64188;SDS011;50493;50.970;10.082;2023-11-21T02:21:45;5.32;;;2.95;;
64188;SDS011;50493;50.970;10.082;2023-11-21T02:24:12;4.93;;;2.60;;
64188;SDS011;50493;50.970;10.082;2023-11-21T02:26:38;4.45;;;2.50;;
64188;SDS011;50493;50.970;10.082;2023-11-21T02:29:03;4.38;;;2.67;;
64188;SDS011;50493;50.970;10.082;2023-11-21T02:31:29;10.98;;;4.50;;
64188;SDS011;50493;50.970;10.082;2023-11-21T02:33:55;4.88;;;3.15;;
64188;SDS011;50493;50.970;10.082;2023-11-21T02:36:20;3.97;;;2.50;;
64188;SDS011;50493;50.970;10.082;2023-11-21T02:38:46;5.75;;;2.65;;
64188;SDS011;50493;50.970;10.082;2023-11-21T02:41:13;4.25;;;2.60;;
64188;SDS011;50493;50.970;10.082;2023-11-21T02:43:39;5.07;;;2.65;;
64188;SDS011;50493;50.970;10.082;2023-11-21T02:46:04;5.35;;;2.88;;
64188;SDS011;50493;50.970;10.082;2023-11-21T02:48:30;4.47;;;2.60;;
64188;SDS011;50493;50.970;10.082;2023-11-21T02:50:55;4.35;;;2.50;;
64188;SDS011;50493;50.970;10.082;2023-11-21T02:53:21;6.05;;;2.70;;
64188;SDS011;50493;50.970;10.082;2023-11-21T02:55:46;4.85;;;2.65;;
64188;SDS011;50493;50.970;10.082;2023-11-21T02:58:13;5.75;;;2.80;;
64188;SDS011;50493;50.970;10.082;2023-11-21T03:00:38;4.55;;;2.75;;
64188;SDS011;50493;50.970;10.082;2023-11-21T03:03:06;4.82;;;2.67;;
64188;SDS011;50493;50.970;10.082;2023-11-21T03:05:33;5.55;;;3.10;;
64188;SDS011;50493;50.970;10.082;2023-11-21T03:08:00;4.30;;;2.65;;
64188;SDS011;50493;50.970;10.082;2023-11-21T03:10:25;11.48;;;4.55;;
64188;SDS011;50493;50.970;10.082;2023-11-21T03:12:52;7.13;;;3.70;;
64188;SDS011;50493;50.970;10.082;2023-11-21T03:15:19;5.25;;;2.92;;
64188;SDS011;50493;50.970;10.082;2023-11-21T03:17:44;5.05;;;2.75;;
64188;SDS011;50493;50.970;10.082;2023-11-21T03:20:10;5.15;;;3.10;;
64188;SDS011;50493;50.970;10.082;2023-11-21T03:22:36;4.68;;;2.75;;
64188;SDS011;50493;50.970;10.082;2023-11-21T03:25:03;4.90;;;2.90;;
64188;SDS011;50493;50.970;10.082;2023-11-21T03:27:30;5.78;;;3.05;;
64188;SDS011;50493;50.970;10.082;2023-11-21T03:29:55;4.07;;;2.58;;
64188;SDS011;50493;50.970;10.082;2023-11-21T03:32:22;4.82;;;3.00;;
64188;SDS011;50493;50.970;10.082;2023-11-21T03:34:54;5.90;;;2.83;;
64188;SDS011;50493;50.970;10.082;2023-11-21T03:37:21;3.97;;;2.45;;
64188;SDS011;50493;50.970;10.082;2023-11-21T03:39:46;5.00;;;2.50;;
64188;SDS011;50493;50.970;10.082;2023-11-21T03:42:12;4.13;;;2.40;;
64188;SDS011;50493;50.970;10.082;2023-11-21T03:44:37;4.60;;;2.60;;
64188;SDS011;50493;50.970;10.082;2023-11-21T03:47:03;3.58;;;2.30;;
64188;SDS011;50493;50.970;10.082;2023-11-21T03:49:30;4.75;;;2.65;;
64188;SDS011;50493;50.970;10.082;2023-11-21T03:51:56;4.15;;;2.40;;
64188;SDS011;50493;50.970;10.082;2023-11-21T03:54:21;4.35;;;2.53;;
64188;SDS011;50493;50.970;10.082;2023-11-21T03:56:46;4.20;;;2.35;;
64188;SDS011;50493;50.970;10.082;2023-11-21T03:59:12;4.45;;;2.33;;
64188;SDS011;50493;50.970;10.082;2023-11-21T04:01:37;4.28;;;2.60;;
64188;SDS011;50493;50.970;10.082;2023-11-21T04:04:03;4.43;;;2.40;;
64188;SDS011;50493;50.970;10.082;2023-11-21T04:06:30;4.47;;;2.15;;
64188;SDS011;50493;50.970;10.082;2023-11-21T04:08:57;4.53;;;2.53;;
64188;SDS011;50493;50.970;10.082;2023-11-21T04:11:23;4.57;;;2.50;;
64188;SDS011;50493;50.970;10.082;2023-11-21T04:13:48;5.15;;;2.45;;
64188;SDS011;50493;50.970;10.082;2023-11-21T04:16:14;4.93;;;2.55;;
64188;SDS011;50493;50.970;10.082;2023-11-21T04:18:39;3.35;;;2.08;;
64188;SDS011;50493;50.970;10.082;2023-11-21T04:21:05;4.78;;;2.58;;
64188;SDS011;50493;50.970;10.082;2023-11-21T04:23:32;5.00;;;2.40;;
64188;SDS011;50493;50.970;10.082;2023-11-21T04:25:57;5.00;;;2.30;;
64188;SDS011;50493;50.970;10.082;2023-11-21T04:28:23;3.72;;;2.10;;
64188;SDS011;50493;50.970;10.082;2023-11-21T04:30:49;4.53;;;2.15;;
64188;SDS011;50493;50.970;10.082;2023-11-21T04:33:15;5.30;;;2.33;;
64188;SDS011;50493;50.970;10.082;2023-11-21T04:35:41;4.43;;;2.08;;
64188;SDS011;50493;50.970;10.082;2023-11-21T04:38:06;4.32;;;2.15;;
64188;SDS011;50493;50.970;10.082;2023-11-21T04:40:33;3.90;;;2.10;;
64188;SDS011;50493;50.970;10.082;2023-11-21T04:42:58;3.53;;;1.80;;
64188;SDS011;50493;50.970;10.082;2023-11-21T04:45:24;4.13;;;1.95;;
64188;SDS011;50493;50.970;10.082;2023-11-21T04:47:49;3.08;;;1.90;;
64188;SDS011;50493;50.970;10.082;2023-11-21T04:50:15;4.13;;;2.10;;
64188;SDS011;50493;50.970;10.082;2023-11-21T04:52:40;4.00;;;2.08;;
64188;SDS011;50493;50.970;10.082;2023-11-21T04:55:06;3.38;;;1.90;;
64188;SDS011;50493;50.970;10.082;2023-11-21T04:57:36;4.68;;;2.10;;
64188;SDS011;50493;50.970;10.082;2023-11-21T05:00:01;3.80;;;2.10;;
64188;SDS011;50493;50.970;10.082;2023-11-21T05:02:30;3.67;;;1.95;;
64188;SDS011;50493;50.970;10.082;2023-11-21T05:04:56;4.00;;;2.13;;
64188;SDS011;50493;50.970;10.082;2023-11-21T05:07:22;4.13;;;1.90;;
64188;SDS011;50493;50.970;10.082;2023-11-21T05:09:47;4.50;;;2.38;;
64188;SDS011;50493;50.970;10.082;2023-11-21T05:12:13;4.32;;;2.17;;
64188;SDS011;50493;50.970;10.082;2023-11-21T05:14:40;5.13;;;2.10;;
64188;SDS011;50493;50.970;10.082;2023-11-21T05:17:07;3.85;;;2.22;;
64188;SDS011;50493;50.970;10.082;2023-11-21T05:19:33;4.20;;;2.40;;
64188;SDS011;50493;50.970;10.082;2023-11-21T05:21:59;4.28;;;2.15;;
64188;SDS011;50493;50.970;10.082;2023-11-21T05:24:25;4.38;;;2.38;;
64188;SDS011;50493;50.970;10.082;2023-11-21T05:26:51;3.90;;;2.30;;
64188;SDS011;50493;50.970;10.082;2023-11-21T05:29:16;4.00;;;2.03;;
64188;SDS011;50493;50.970;10.082;2023-11-21T05:31:43;4.57;;;2.20;;
64188;SDS011;50493;50.970;10.082;2023-11-21T05:34:08;4.50;;;2.63;;
64188;SDS011;50493;50.970;10.082;2023-11-21T05:36:33;5.10;;;2.38;;
64188;SDS011;50493;50.970;10.082;2023-11-21T05:38:59;4.13;;;2.13;;
64188;SDS011;50493;50.970;10.082;2023-11-21T05:41:24;4.75;;;2.30;;
64188;SDS011;50493;50.970;10.082;2023-11-21T05:43:50;4.40;;;2.30;;
64188;SDS011;50493;50.970;10.082;2023-11-21T05:46:16;3.47;;;2.10;;
64188;SDS011;50493;50.970;10.082;2023-11-21T05:48:43;4.40;;;2.40;;
64188;SDS011;50493;50.970;10.082;2023-11-21T05:51:08;4.75;;;2.17;;
64188;SDS011;50493;50.970;10.082;2023-11-21T05:53:33;4.82;;;2.40;;
64188;SDS011;50493;50.970;10.082;2023-11-21T05:55:59;5.38;;;2.40;;
64188;SDS011;50493;50.970;10.082;2023-11-21T05:58:25;8.32;;;2.90;;
64188;SDS011;50493;50.970;10.082;2023-11-21T06:00:50;4.82;;;2.53;;
64188;SDS011;50493;50.970;10.082;2023-11-21T06:03:16;4.43;;;2.30;;
64188;SDS011;50493;50.970;10.082;2023-11-21T06:05:43;4.68;;;2.13;;
64188;SDS011;50493;50.970;10.082;2023-11-21T06:08:09;4.05;;;2.25;;
64188;SDS011;50493;50.970;10.082;2023-11-21T06:10:35;4.43;;;2.47;;
64188;SDS011;50493;50.970;10.082;2023-11-21T06:13:01;5.00;;;2.33;;
64188;SDS011;50493;50.970;10.082;2023-11-21T06:15:26;6.32;;;2.50;;
64188;SDS011;50493;50.970;10.082;2023-11-21T06:17:51;5.95;;;2.38;;
64188;SDS011;50493;50.970;10.082;2023-11-21T06:20:17;4.95;;;2.40;;
64188;SDS011;50493;50.970;10.082;2023-11-21T06:22:45;4.28;;;2.28;;
64188;SDS011;50493;50.970;10.082;2023-11-21T06:25:12;5.40;;;2.42;;
64188;SDS011;50493;50.970;10.082;2023-11-21T06:27:39;4.75;;;2.28;;
64188;SDS011;50493;50.970;10.082;2023-11-21T06:30:05;4.82;;;2.50;;
64188;SDS011;50493;50.970;10.082;2023-11-21T06:32:33;4.10;;;2.33;;
64188;SDS011;50493;50.970;10.082;2023-11-21T06:34:59;5.78;;;2.25;;
64188;SDS011;50493;50.970;10.082;2023-11-21T06:37:25;4.55;;;2.30;;
64188;SDS011;50493;50.970;10.082;2023-11-21T06:39:51;5.70;;;2.30;;
64188;SDS011;50493;50.970;10.082;2023-11-21T06:42:17;7.00;;;2.30;;
64188;SDS011;50493;50.970;10.082;2023-11-21T06:44:44;4.88;;;2.20;;
64188;SDS011;50493;50.970;10.082;2023-11-21T06:47:09;5.50;;;2.50;;
64188;SDS011;50493;50.970;10.082;2023-11-21T06:49:35;5.93;;;2.47;;
64188;SDS011;50493;50.970;10.082;2023-11-21T06:52:01;5.22;;;2.30;;
64188;SDS011;50493;50.970;10.082;2023-11-21T06:54:28;4.05;;;2.25;;
64188;SDS011;50493;50.970;10.082;2023-11-21T06:56:55;3.60;;;2.17;;
64188;SDS011;50493;50.970;10.082;2023-11-21T06:59:21;4.53;;;1.98;;
64188;SDS011;50493;50.970;10.082;2023-11-21T07:01:47;3.80;;;2.20;;
64188;SDS011;50493;50.970;10.082;2023-11-21T07:04:12;4.35;;;2.28;;
64188;SDS011;50493;50.970;10.082;2023-11-21T07:06:38;3.92;;;2.20;;
64188;SDS011;50493;50.970;10.082;2023-11-21T07:09:03;3.60;;;2.00;;
64188;SDS011;50493;50.970;10.082;2023-11-21T07:11:29;3.53;;;2.13;;
64188;SDS011;50493;50.970;10.082;2023-11-21T07:13:55;4.30;;;2.30;;
64188;SDS011;50493;50.970;10.082;2023-11-21T07:16:21;4.05;;;2.00;;
64188;SDS011;50493;50.970;10.082;2023-11-21T07:18:47;4.85;;;2.45;;
64188;SDS011;50493;50.970;10.082;2023-11-21T07:21:14;4.15;;;2.00;;
64188;SDS011;50493;50.970;10.082;2023-11-21T07:23:40;4.03;;;2.10;;
64188;SDS011;50493;50.970;10.082;2023-11-21T07:26:06;3.60;;;2.00;;
64188;SDS011;50493;50.970;10.082;2023-11-21T07:28:34;4.05;;;2.30;;
64188;SDS011;50493;50.970;10.082;2023-11-21T07:31:01;3.30;;;1.90;;
64188;SDS011;50493;50.970;10.082;2023-11-21T07:33:26;4.45;;;2.30;;
64188;SDS011;50493;50.970;10.082;2023-11-21T07:35:51;5.47;;;3.00;;
64188;SDS011;50493;50.970;10.082;2023-11-21T07:38:17;4.50;;;2.50;;
64188;SDS011;50493;50.970;10.082;2023-11-21T07:40:42;4.97;;;2.50;;
64188;SDS011;50493;50.970;10.082;2023-11-21T07:43:08;5.00;;;2.40;;
64188;SDS011;50493;50.970;10.082;2023-11-21T07:45:34;7.20;;;2.90;;
64188;SDS011;50493;50.970;10.082;2023-11-21T07:48:00;4.13;;;2.42;;
64188;SDS011;50493;50.970;10.082;2023-11-21T07:50:28;5.45;;;2.72;;
64188;SDS011;50493;50.970;10.082;2023-11-21T07:52:53;4.13;;;2.40;;
64188;SDS011;50493;50.970;10.082;2023-11-21T07:55:19;5.47;;;3.20;;
64188;SDS011;50493;50.970;10.082;2023-11-21T07:57:45;6.82;;;2.97;;
64188;SDS011;50493;50.970;10.082;2023-11-21T08:00:11;5.20;;;2.80;;
64188;SDS011;50493;50.970;10.082;2023-11-21T08:02:37;5.30;;;3.10;;
64188;SDS011;50493;50.970;10.082;2023-11-21T08:05:04;5.07;;;3.00;;
64188;SDS011;50493;50.970;10.082;2023-11-21T08:07:29;5.22;;;2.90;;
64188;SDS011;50493;50.970;10.082;2023-11-21T08:09:56;6.53;;;3.50;;
64188;SDS011;50493;50.970;10.082;2023-11-21T08:12:21;6.90;;;3.70;;
64188;SDS011;50493;50.970;10.082;2023-11-21T08:14:47;9.27;;;4.88;;
64188;SDS011;50493;50.970;10.082;2023-11-21T08:17:12;10.50;;;3.88;;
64188;SDS011;50493;50.970;10.082;2023-11-21T08:19:39;5.90;;;2.90;;
64188;SDS011;50493;50.970;10.082;2023-11-21T08:22:05;7.15;;;3.22;;
64188;SDS011;50493;50.970;10.082;2023-11-21T08:24:32;8.20;;;3.83;;
64188;SDS011;50493;50.970;10.082;2023-11-21T08:26:58;9.10;;;4.03;;
64188;SDS011;50493;50.970;10.082;2023-11-21T08:29:23;8.95;;;4.57;;
64188;SDS011;50493;50.970;10.082;2023-11-21T08:31:49;8.98;;;4.35;;
64188;SDS011;50493;50.970;10.082;2023-11-21T08:34:14;8.95;;;4.40;;
64188;SDS011;50493;50.970;10.082;2023-11-21T08:36:41;9.18;;;4.47;;
64188;SDS011;50493;50.970;10.082;2023-11-21T08:39:08;7.20;;;4.10;;
64188;SDS011;50493;50.970;10.082;2023-11-21T08:41:34;18.40;;;8.52;;
64188;SDS011;50493;50.970;10.082;2023-11-21T08:44:00;16.27;;;7.40;;
64188;SDS011;50493;50.970;10.082;2023-11-21T08:46:25;18.00;;;9.13;;
64188;SDS011;50493;50.970;10.082;2023-11-21T08:48:51;16.52;;;8.13;;
64188;SDS011;50493;50.970;10.082;2023-11-21T08:51:17;12.05;;;5.95;;
64188;SDS011;50493;50.970;10.082;2023-11-21T08:53:43;8.25;;;4.20;;
64188;SDS011;50493;50.970;10.082;2023-11-21T08:56:13;11.02;;;4.10;;
64188;SDS011;50493;50.970;10.082;2023-11-21T08:58:41;9.48;;;4.25;;
64188;SDS011;50493;50.970;10.082;2023-11-21T09:01:06;10.95;;;5.50;;
64188;SDS011;50493;50.970;10.082;2023-11-21T09:03:32;10.70;;;4.75;;
64188;SDS011;50493;50.970;10.082;2023-11-21T09:05:59;9.77;;;5.18;;
64188;SDS011;50493;50.970;10.082;2023-11-21T09:08:24;7.35;;;4.07;;
64188;SDS011;50493;50.970;10.082;2023-11-21T09:10:50;10.10;;;4.80;;
64188;SDS011;50493;50.970;10.082;2023-11-21T09:13:17;6.90;;;4.05;;
64188;SDS011;50493;50.970;10.082;2023-11-21T09:15:43;6.50;;;3.80;;
64188;SDS011;50493;50.970;10.082;2023-11-21T09:18:11;6.50;;;3.50;;
64188;SDS011;50493;50.970;10.082;2023-11-21T09:20:37;7.38;;;3.80;;
64188;SDS011;50493;50.970;10.082;2023-11-21T09:23:02;6.70;;;3.72;;
64188;SDS011;50493;50.970;10.082;2023-11-21T09:25:28;7.72;;;3.88;;
64188;SDS011;50493;50.970;10.082;2023-11-21T09:27:54;7.53;;;4.00;;
64188;SDS011;50493;50.970;10.082;2023-11-21T09:30:20;6.40;;;3.30;;
64188;SDS011;50493;50.970;10.082;2023-11-21T09:32:46;11.02;;;4.82;;
64188;SDS011;50493;50.970;10.082;2023-11-21T09:35:11;7.55;;;3.97;;
64188;SDS011;50493;50.970;10.082;2023-11-21T09:37:38;10.93;;;5.25;;
64188;SDS011;50493;50.970;10.082;2023-11-21T09:40:04;13.02;;;6.05;;
64188;SDS011;50493;50.970;10.082;2023-11-21T09:42:38;8.75;;;4.68;;
64188;SDS011;50493;50.970;10.082;2023-11-21T09:45:09;10.30;;;5.28;;
64188;SDS011;50493;50.970;10.082;2023-11-21T09:47:42;12.57;;;5.78;;
64188;SDS011;50493;50.970;10.082;2023-11-21T09:50:08;11.13;;;5.28;;
64188;SDS011;50493;50.970;10.082;2023-11-21T09:52:38;6.25;;;3.38;;
64188;SDS011;50493;50.970;10.082;2023-11-21T09:55:13;7.30;;;3.50;;
64188;SDS011;50493;50.970;10.082;2023-11-21T09:57:43;6.78;;;3.30;;
64188;SDS011;50493;50.970;10.082;2023-11-21T10:00:10;10.95;;;6.22;;
64188;SDS011;50493;50.970;10.082;2023-11-21T10:02:37;14.35;;;9.00;;
64188;SDS011;50493;50.970;10.082;2023-11-21T10:05:07;17.25;;;9.48;;
64188;SDS011;50493;50.970;10.082;2023-11-21T10:07:34;7.65;;;4.43;;
64188;SDS011;50493;50.970;10.082;2023-11-21T10:10:00;14.00;;;8.20;;
64188;SDS011;50493;50.970;10.082;2023-11-21T10:12:26;15.77;;;9.10;;
64188;SDS011;50493;50.970;10.082;2023-11-21T10:14:53;16.35;;;8.30;;
64188;SDS011;50493;50.970;10.082;2023-11-21T10:17:22;14.75;;;8.30;;
64188;SDS011;50493;50.970;10.082;2023-11-21T10:19:54;6.15;;;3.63;;
64188;SDS011;50493;50.970;10.082;2023-11-21T10:22:22;12.95;;;7.93;;
64188;SDS011;50493;50.970;10.082;2023-11-21T10:24:48;16.60;;;7.80;;
64188;SDS011;50493;50.970;10.082;2023-11-21T10:27:13;7.55;;;4.22;;
64188;SDS011;50493;50.970;10.082;2023-11-21T10:29:39;6.53;;;3.67;;
64188;SDS011;50493;50.970;10.082;2023-11-21T10:32:05;10.43;;;5.82;;
64188;SDS011;50493;50.970;10.082;2023-11-21T10:34:30;11.38;;;6.30;;
64188;SDS011;50493;50.970;10.082;2023-11-21T10:36:56;11.65;;;6.13;;
64188;SDS011;50493;50.970;10.082;2023-11-21T10:39:24;11.95;;;6.10;;
64188;SDS011;50493;50.970;10.082;2023-11-21T10:41:55;10.80;;;5.95;;
64188;SDS011;50493;50.970;10.082;2023-11-21T10:44:21;12.57;;;6.65;;
64188;SDS011;50493;50.970;10.082;2023-11-21T10:46:48;10.77;;;6.35;;
64188;SDS011;50493;50.970;10.082;2023-11-21T10:49:15;14.75;;;8.55;;
64188;SDS011;50493;50.970;10.082;2023-11-21T10:51:43;12.77;;;6.90;;
64188;SDS011;50493;50.970;10.082;2023-11-21T10:54:08;11.20;;;6.00;;
64188;SDS011;50493;50.970;10.082;2023-11-21T10:56:35;9.20;;;5.63;;
64188;SDS011;50493;50.970;10.082;2023-11-21T10:59:05;9.45;;;5.50;;
64188;SDS011;50493;50.970;10.082;2023-11-21T11:01:34;11.65;;;5.72;;
64188;SDS011;50493;50.970;10.082;2023-11-21T11:04:00;9.93;;;5.75;;
64188;SDS011;50493;50.970;10.082;2023-11-21T11:06:30;9.90;;;5.75;;
64188;SDS011;50493;50.970;10.082;2023-11-21T11:08:57;8.10;;;4.38;;
64188;SDS011;50493;50.970;10.082;2023-11-21T11:11:24;12.63;;;6.20;;
64188;SDS011;50493;50.970;10.082;2023-11-21T11:13:51;10.63;;;5.78;;
64188;SDS011;50493;50.970;10.082;2023-11-21T11:16:18;11.20;;;6.53;;
64188;SDS011;50493;50.970;10.082;2023-11-21T11:18:45;12.25;;;5.82;;
64188;SDS011;50493;50.970;10.082;2023-11-21T11:21:15;14.63;;;7.00;;
64188;SDS011;50493;50.970;10.082;2023-11-21T11:23:55;11.93;;;6.15;;
64188;SDS011;50493;50.970;10.082;2023-11-21T11:26:41;12.68;;;5.97;;
64188;SDS011;50493;50.970;10.082;2023-11-21T11:29:13;10.82;;;5.13;;
64188;SDS011;50493;50.970;10.082;2023-11-21T11:31:50;5.78;;;3.50;;
64188;SDS011;50493;50.970;10.082;2023-11-21T11:34:24;12.57;;;5.80;;
64188;SDS011;50493;50.970;10.082;2023-11-21T11:36:57;5.03;;;3.10;;
64188;SDS011;50493;50.970;10.082;2023-11-21T11:39:27;8.07;;;3.90;;
64188;SDS011;50493;50.970;10.082;2023-11-21T11:41:55;17.60;;;6.97;;
64188;SDS011;50493;50.970;10.082;2023-11-21T11:47:20;13.73;;;6.32;;
64188;SDS011;50493;50.970;10.082;2023-11-21T11:49:54;16.08;;;6.85;;
64188;SDS011;50493;50.970;10.082;2023-11-21T11:52:38;13.82;;;7.00;;
64188;SDS011;50493;50.970;10.082;2023-11-21T11:55:08;11.32;;;6.60;;
64188;SDS011;50493;50.970;10.082;2023-11-21T11:57:35;7.80;;;3.95;;
64188;SDS011;50493;50.970;10.082;2023-11-21T12:00:09;13.40;;;6.15;;
64188;SDS011;50493;50.970;10.082;2023-11-21T12:02:36;12.70;;;6.20;;
64188;SDS011;50493;50.970;10.082;2023-11-21T12:05:07;6.00;;;3.63;;
64188;SDS011;50493;50.970;10.082;2023-11-21T12:07:39;14.50;;;6.53;;
64188;SDS011;50493;50.970;10.082;2023-11-21T12:10:07;7.15;;;3.88;;
64188;SDS011;50493;50.970;10.082;2023-11-21T12:12:36;6.30;;;3.47;;
64188;SDS011;50493;50.970;10.082;2023-11-21T12:15:04;5.68;;;3.25;;
64188;SDS011;50493;50.970;10.082;2023-11-21T12:17:31;7.93;;;4.05;;
64188;SDS011;50493;50.970;10.082;2023-11-21T12:20:01;7.05;;;3.78;;
64188;SDS011;50493;50.970;10.082;2023-11-21T12:22:28;6.53;;;3.70;;
64188;SDS011;50493;50.970;10.082;2023-11-21T12:24:54;7.22;;;3.75;;
64188;SDS011;50493;50.970;10.082;2023-11-21T12:27:20;9.65;;;5.38;;
64188;SDS011;50493;50.970;10.082;2023-11-21T12:29:46;5.50;;;3.28;;
64188;SDS011;50493;50.970;10.082;2023-11-21T12:32:11;9.55;;;5.20;;
64188;SDS011;50493;50.970;10.082;2023-11-21T12:34:38;7.03;;;3.70;;
64188;SDS011;50493;50.970;10.082;2023-11-21T12:37:03;10.55;;;4.93;;
64188;SDS011;50493;50.970;10.082;2023-11-21T12:39:29;11.35;;;5.03;;
64188;SDS011;50493;50.970;10.082;2023-11-21T12:41:55;6.10;;;3.40;;
64188;SDS011;50493;50.970;10.082;2023-11-21T12:44:21;10.48;;;4.72;;
64188;SDS011;50493;50.970;10.082;2023-11-21T12:46:48;8.80;;;4.70;;
64188;SDS011;50493;50.970;10.082;2023-11-21T12:49:15;9.82;;;4.97;;
64188;SDS011;50493;50.970;10.082;2023-11-21T12:51:44;13.10;;;5.28;;
64188;SDS011;50493;50.970;10.082;2023-11-21T12:54:10;8.07;;;4.65;;
64188;SDS011;50493;50.970;10.082;2023-11-21T12:56:37;10.02;;;4.75;;
64188;SDS011;50493;50.970;10.082;2023-11-21T12:59:03;10.90;;;4.55;;
64188;SDS011;50493;50.970;10.082;2023-11-21T13:01:29;10.32;;;4.93;;
64188;SDS011;50493;50.970;10.082;2023-11-21T13:03:57;9.77;;;4.63;;
64188;SDS011;50493;50.970;10.082;2023-11-21T13:06:23;10.13;;;4.70;;
64188;SDS011;50493;50.970;10.082;2023-11-21T13:08:52;8.35;;;4.20;;
64188;SDS011;50493;50.970;10.082;2023-11-21T13:11:19;10.10;;;5.00;;
64188;SDS011;50493;50.970;10.082;2023-11-21T13:13:44;9.27;;;4.63;;
64188;SDS011;50493;50.970;10.082;2023-11-21T13:16:10;7.95;;;3.60;;
64188;SDS011;50493;50.970;10.082;2023-11-21T13:18:36;10.52;;;4.55;;
64188;SDS011;50493;50.970;10.082;2023-11-21T13:21:03;6.25;;;3.60;;
64188;SDS011;50493;50.970;10.082;2023-11-21T13:23:39;6.35;;;3.30;;
64188;SDS011;50493;50.970;10.082;2023-11-21T13:26:08;36.28;;;17.13;;
64188;SDS011;50493;50.970;10.082;2023-11-21T13:28:34;7.15;;;3.80;;
64188;SDS011;50493;50.970;10.082;2023-11-21T13:31:00;6.68;;;3.70;;
64188;SDS011;50493;50.970;10.082;2023-11-21T13:33:34;8.10;;;3.97;;
64188;SDS011;50493;50.970;10.082;2023-11-21T13:36:02;7.57;;;3.60;;
64188;SDS011;50493;50.970;10.082;2023-11-21T13:38:32;5.45;;;3.00;;
64188;SDS011;50493;50.970;10.082;2023-11-21T13:40:59;6.40;;;3.20;;
64188;SDS011;50493;50.970;10.082;2023-11-21T13:43:26;5.50;;;3.20;;
64188;SDS011;50493;50.970;10.082;2023-11-21T13:45:53;7.43;;;3.45;;
64188;SDS011;50493;50.970;10.082;2023-11-21T13:48:29;6.25;;;3.20;;
64188;SDS011;50493;50.970;10.082;2023-11-21T13:51:03;6.07;;;3.45;;
64188;SDS011;50493;50.970;10.082;2023-11-21T13:53:43;6.22;;;3.17;;
64188;SDS011;50493;50.970;10.082;2023-11-21T13:56:12;6.00;;;3.38;;
64188;SDS011;50493;50.970;10.082;2023-11-21T13:58:44;5.85;;;2.70;;
64188;SDS011;50493;50.970;10.082;2023-11-21T14:01:12;5.40;;;3.10;;
64188;SDS011;50493;50.970;10.082;2023-11-21T14:04:00;6.03;;;3.00;;
64188;SDS011;50493;50.970;10.082;2023-11-21T14:06:42;3.30;;;1.90;;
64188;SDS011;50493;50.970;10.082;2023-11-21T14:09:13;5.30;;;2.60;;
64188;SDS011;50493;50.970;10.082;2023-11-21T14:11:47;5.45;;;3.47;;
64188;SDS011;50493;50.970;10.082;2023-11-21T14:14:15;5.40;;;3.03;;
64188;SDS011;50493;50.970;10.082;2023-11-21T14:16:43;6.82;;;2.97;;
64188;SDS011;50493;50.970;10.082;2023-11-21T14:19:08;4.47;;;2.05;;
64188;SDS011;50493;50.970;10.082;2023-11-21T14:21:40;5.55;;;2.80;;
64188;SDS011;50493;50.970;10.082;2023-11-21T14:24:08;5.10;;;2.70;;
64188;SDS011;50493;50.970;10.082;2023-11-21T14:26:34;4.85;;;2.65;;
64188;SDS011;50493;50.970;10.082;2023-11-21T14:29:00;4.80;;;2.75;;
64188;SDS011;50493;50.970;10.082;2023-11-21T14:31:27;4.57;;;2.65;;